O28 weather

Ells Field Willits Municipal Airport
Willits, California, United States

Public forecast

Using degrees Fahrenheit for public forecast. Weather courtesy of forecast.io.

METAR (pilot weather report)

Closest report is Ukiah Municipal Airport, 21.1 nm (39.1 km) SSE. Retrieved 2019/08/21 20:56 UTC (20 minutes ago):

KUKI 212056Z AUTO 32009G21KT 10SM CLR 32/09 A2995 RMK AO2 SLP133 T03170089 56015

TAF (pilot weather forecast)

Closest forecast is Ukiah Municipal Airport, 21.1 nm (39.1 km) SSE. Retrieved 2019/08/21 18:39 UTC (3 hours ago):

TAF KUKI 211737Z 2118/2218 VRB03KT P6SM FEW250 FM212100 31010G20KT P6SM BKN150 FM220400 VRB03KT P6SM SCT120 FM221500 36003KT P6SM SKC